sensor_id;sensor_type;location;lat;lon;timestamp;temperature;humidity
30328;DHT22;17133;52.418;13.398;2022-08-19T00:01:42;21.60;99.90
30328;DHT22;17133;52.418;13.398;2022-08-19T00:04:13;21.60;99.90
30328;DHT22;17133;52.418;13.398;2022-08-19T00:06:40;20.50;99.90
30328;DHT22;17133;52.418;13.398;2022-08-19T00:09:09;21.60;99.90
30328;DHT22;17133;52.418;13.398;2022-08-19T00:11:35;21.60;99.90
30328;DHT22;17133;52.418;13.398;2022-08-19T00:14:04;21.60;99.90
30328;DHT22;17133;52.418;13.398;2022-08-19T00:16:30;21.60;99.90
30328;DHT22;17133;52.418;13.398;2022-08-19T00:18:56;21.50;99.90
30328;DHT22;17133;52.418;13.398;2022-08-19T00:21:23;21.50;99.90
30328;DHT22;17133;52.418;13.398;2022-08-19T00:23:49;21.50;99.90
30328;DHT22;17133;52.418;13.398;2022-08-19T00:26:14;21.50;99.90
30328;DHT22;17133;52.418;13.398;2022-08-19T00:28:40;21.50;99.90
30328;DHT22;17133;52.418;13.398;2022-08-19T00:31:07;21.50;99.90
30328;DHT22;17133;52.418;13.398;2022-08-19T00:33:34;21.40;99.90
30328;DHT22;17133;52.418;13.398;2022-08-19T00:36:01;21.40;99.90
30328;DHT22;17133;52.418;13.398;2022-08-19T00:38:28;21.40;99.90
30328;DHT22;17133;52.418;13.398;2022-08-19T00:40:55;21.60;99.90
30328;DHT22;17133;52.418;13.398;2022-08-19T00:43:23;21.40;99.90
30328;DHT22;17133;52.418;13.398;2022-08-19T00:45:49;21.40;99.90
30328;DHT22;17133;52.418;13.398;2022-08-19T00:48:16;21.40;99.90
30328;DHT22;17133;52.418;13.398;2022-08-19T00:50:42;21.40;99.90
30328;DHT22;17133;52.418;13.398;2022-08-19T00:53:10;21.40;99.90
30328;DHT22;17133;52.418;13.398;2022-08-19T00:55:37;21.30;99.90
30328;DHT22;17133;52.418;13.398;2022-08-19T00:58:15;21.40;99.90
30328;DHT22;17133;52.418;13.398;2022-08-19T01:00:41;21.30;99.90
30328;DHT22;17133;52.418;13.398;2022-08-19T01:03:10;21.30;99.90
30328;DHT22;17133;52.418;13.398;2022-08-19T01:05:37;21.30;99.90
30328;DHT22;17133;52.418;13.398;2022-08-19T01:08:04;21.20;99.90
30328;DHT22;17133;52.418;13.398;2022-08-19T01:10:33;21.20;99.90
30328;DHT22;17133;52.418;13.398;2022-08-19T01:13:02;21.20;99.90
30328;DHT22;17133;52.418;13.398;2022-08-19T01:15:34;21.20;99.90
30328;DHT22;17133;52.418;13.398;2022-08-19T01:18:06;21.20;99.90
30328;DHT22;17133;52.418;13.398;2022-08-19T01:20:32;21.10;99.90
30328;DHT22;17133;52.418;13.398;2022-08-19T01:23:00;21.10;99.90
30328;DHT22;17133;52.418;13.398;2022-08-19T01:25:33;21.10;99.90
30328;DHT22;17133;52.418;13.398;2022-08-19T01:28:00;21.10;99.90
30328;DHT22;17133;52.418;13.398;2022-08-19T01:30:29;21.10;99.90
30328;DHT22;17133;52.418;13.398;2022-08-19T01:32:56;21.10;99.90
30328;DHT22;17133;52.418;13.398;2022-08-19T01:35:24;21.10;99.90
30328;DHT22;17133;52.418;13.398;2022-08-19T01:40:23;21.10;99.90
30328;DHT22;17133;52.418;13.398;2022-08-19T01:42:51;21.10;99.90
30328;DHT22;17133;52.418;13.398;2022-08-19T01:45:19;21.10;99.90
30328;DHT22;17133;52.418;13.398;2022-08-19T01:47:45;21.00;99.90
30328;DHT22;17133;52.418;13.398;2022-08-19T01:50:11;21.00;99.90
30328;DHT22;17133;52.418;13.398;2022-08-19T01:52:41;20.90;99.90
30328;DHT22;17133;52.418;13.398;2022-08-19T01:55:14;21.00;99.90
30328;DHT22;17133;52.418;13.398;2022-08-19T01:57:43;20.90;99.90
30328;DHT22;17133;52.418;13.398;2022-08-19T02:00:12;20.90;99.90
30328;DHT22;17133;52.418;13.398;2022-08-19T02:02:39;20.90;99.90
30328;DHT22;17133;52.418;13.398;2022-08-19T02:05:05;20.50;99.90
30328;DHT22;17133;52.418;13.398;2022-08-19T02:07:32;20.80;99.90
30328;DHT22;17133;52.418;13.398;2022-08-19T02:09:58;20.80;99.90
30328;DHT22;17133;52.418;13.398;2022-08-19T02:12:23;20.80;99.90
30328;DHT22;17133;52.418;13.398;2022-08-19T02:14:49;20.80;99.90
30328;DHT22;17133;52.418;13.398;2022-08-19T02:19:41;20.90;99.90
30328;DHT22;17133;52.418;13.398;2022-08-19T02:22:06;20.80;99.90
30328;DHT22;17133;52.418;13.398;2022-08-19T02:24:32;20.80;99.90
30328;DHT22;17133;52.418;13.398;2022-08-19T02:26:58;20.80;99.90
30328;DHT22;17133;52.418;13.398;2022-08-19T02:29:24;20.90;99.90
30328;DHT22;17133;52.418;13.398;2022-08-19T02:36:42;20.70;99.90
30328;DHT22;17133;52.418;13.398;2022-08-19T02:39:08;20.90;99.90
30328;DHT22;17133;52.418;13.398;2022-08-19T02:44:02;20.90;99.90
30328;DHT22;17133;52.418;13.398;2022-08-19T02:46:31;20.90;99.90
30328;DHT22;17133;52.418;13.398;2022-08-19T02:49:00;20.70;99.90
30328;DHT22;17133;52.418;13.398;2022-08-19T02:51:35;20.80;99.90
30328;DHT22;17133;52.418;13.398;2022-08-19T02:54:03;20.90;99.90
30328;DHT22;17133;52.418;13.398;2022-08-19T03:01:31;20.80;99.90
30328;DHT22;17133;52.418;13.398;2022-08-19T03:03:58;20.80;99.90
30328;DHT22;17133;52.418;13.398;2022-08-19T03:06:24;20.90;99.90
30328;DHT22;17133;52.418;13.398;2022-08-19T03:08:50;20.80;99.90
30328;DHT22;17133;52.418;13.398;2022-08-19T03:11:22;20.70;99.90
30328;DHT22;17133;52.418;13.398;2022-08-19T03:13:48;20.80;99.90
30328;DHT22;17133;52.418;13.398;2022-08-19T03:16:16;20.60;99.90
30328;DHT22;17133;52.418;13.398;2022-08-19T03:18:42;20.80;99.90
30328;DHT22;17133;52.418;13.398;2022-08-19T03:23:35;20.80;99.90
30328;DHT22;17133;52.418;13.398;2022-08-19T03:26:04;20.80;99.90
30328;DHT22;17133;52.418;13.398;2022-08-19T03:33:33;20.80;99.90
30328;DHT22;17133;52.418;13.398;2022-08-19T03:36:12;20.60;99.90
30328;DHT22;17133;52.418;13.398;2022-08-19T03:38:47;20.80;99.90
30328;DHT22;17133;52.418;13.398;2022-08-19T03:41:18;20.70;99.90
30328;DHT22;17133;52.418;13.398;2022-08-19T03:43:46;20.80;99.90
30328;DHT22;17133;52.418;13.398;2022-08-19T03:46:17;20.70;99.90
30328;DHT22;17133;52.418;13.398;2022-08-19T03:48:46;20.70;99.90
30328;DHT22;17133;52.418;13.398;2022-08-19T03:51:24;20.70;99.90
30328;DHT22;17133;52.418;13.398;2022-08-19T03:53:51;20.50;99.90
30328;DHT22;17133;52.418;13.398;2022-08-19T03:56:18;20.70;99.90
30328;DHT22;17133;52.418;13.398;2022-08-19T03:58:44;20.70;99.90
30328;DHT22;17133;52.418;13.398;2022-08-19T04:01:13;20.60;99.90
30328;DHT22;17133;52.418;13.398;2022-08-19T04:03:39;20.50;99.90
30328;DHT22;17133;52.418;13.398;2022-08-19T04:06:20;20.70;99.90
30328;DHT22;17133;52.418;13.398;2022-08-19T04:08:48;20.60;99.90
30328;DHT22;17133;52.418;13.398;2022-08-19T04:11:17;20.50;99.90
30328;DHT22;17133;52.418;13.398;2022-08-19T04:13:43;20.70;99.90
30328;DHT22;17133;52.418;13.398;2022-08-19T04:16:10;20.70;99.90
30328;DHT22;17133;52.418;13.398;2022-08-19T04:21:04;20.50;99.90
30328;DHT22;17133;52.418;13.398;2022-08-19T04:23:29;20.70;99.90
30328;DHT22;17133;52.418;13.398;2022-08-19T04:25:55;20.50;99.90
30328;DHT22;17133;52.418;13.398;2022-08-19T04:28:22;20.60;99.90
30328;DHT22;17133;52.418;13.398;2022-08-19T04:30:49;20.70;99.90
30328;DHT22;17133;52.418;13.398;2022-08-19T04:33:19;20.70;99.90
30328;DHT22;17133;52.418;13.398;2022-08-19T04:38:14;20.70;99.90
30328;DHT22;17133;52.418;13.398;2022-08-19T04:40:48;20.70;99.90
30328;DHT22;17133;52.418;13.398;2022-08-19T04:50:59;20.70;99.90
30328;DHT22;17133;52.418;13.398;2022-08-19T04:53:28;20.90;99.90
30328;DHT22;17133;52.418;13.398;2022-08-19T05:00:46;21.00;99.90
30328;DHT22;17133;52.418;13.398;2022-08-19T05:03:12;21.10;99.90
30328;DHT22;17133;52.418;13.398;2022-08-19T05:05:40;21.10;99.90
30328;DHT22;17133;52.418;13.398;2022-08-19T05:08:06;21.10;99.90
30328;DHT22;17133;52.418;13.398;2022-08-19T05:10:35;21.10;99.90
30328;DHT22;17133;52.418;13.398;2022-08-19T05:13:01;21.10;99.90
30328;DHT22;17133;52.418;13.398;2022-08-19T05:15:27;21.10;99.90
30328;DHT22;17133;52.418;13.398;2022-08-19T05:20:45;21.00;99.90
30328;DHT22;17133;52.418;13.398;2022-08-19T05:28:21;21.10;99.90
30328;DHT22;17133;52.418;13.398;2022-08-19T05:33:16;21.30;99.90
30328;DHT22;17133;52.418;13.398;2022-08-19T05:35:42;21.20;99.90
30328;DHT22;17133;52.418;13.398;2022-08-19T05:38:09;21.30;99.90
30328;DHT22;17133;52.418;13.398;2022-08-19T05:43:05;21.20;99.90
30328;DHT22;17133;52.418;13.398;2022-08-19T05:45:31;21.30;99.90
30328;DHT22;17133;52.418;13.398;2022-08-19T05:47:57;21.30;99.90
30328;DHT22;17133;52.418;13.398;2022-08-19T05:50:24;21.40;99.90
30328;DHT22;17133;52.418;13.398;2022-08-19T05:52:51;21.40;99.90
30328;DHT22;17133;52.418;13.398;2022-08-19T05:55:17;21.50;99.90
30328;DHT22;17133;52.418;13.398;2022-08-19T05:57:46;21.50;99.90
30328;DHT22;17133;52.418;13.398;2022-08-19T06:00:12;21.50;99.90
30328;DHT22;17133;52.418;13.398;2022-08-19T06:02:39;21.30;99.90
30328;DHT22;17133;52.418;13.398;2022-08-19T06:05:06;21.40;99.90
30328;DHT22;17133;52.418;13.398;2022-08-19T06:07:35;21.60;99.90
30328;DHT22;17133;52.418;13.398;2022-08-19T06:12:31;21.60;99.90
30328;DHT22;17133;52.418;13.398;2022-08-19T06:17:28;21.60;99.90
30328;DHT22;17133;52.418;13.398;2022-08-19T06:19:55;21.60;99.90
30328;DHT22;17133;52.418;13.398;2022-08-19T06:22:20;21.70;99.90
30328;DHT22;17133;52.418;13.398;2022-08-19T06:24:46;21.70;99.90
30328;DHT22;17133;52.418;13.398;2022-08-19T06:27:12;21.70;99.90
30328;DHT22;17133;52.418;13.398;2022-08-19T06:32:04;21.80;99.90
30328;DHT22;17133;52.418;13.398;2022-08-19T06:34:32;21.80;99.90
30328;DHT22;17133;52.418;13.398;2022-08-19T06:37:00;21.70;99.90
30328;DHT22;17133;52.418;13.398;2022-08-19T06:42:00;22.00;99.90
30328;DHT22;17133;52.418;13.398;2022-08-19T06:44:28;21.80;99.90
30328;DHT22;17133;52.418;13.398;2022-08-19T06:46:55;21.90;99.90
30328;DHT22;17133;52.418;13.398;2022-08-19T06:49:22;21.80;99.90
30328;DHT22;17133;52.418;13.398;2022-08-19T06:51:49;21.80;99.90
30328;DHT22;17133;52.418;13.398;2022-08-19T06:54:16;21.80;99.90
30328;DHT22;17133;52.418;13.398;2022-08-19T06:56:42;21.80;99.90
30328;DHT22;17133;52.418;13.398;2022-08-19T06:59:11;21.80;99.90
30328;DHT22;17133;52.418;13.398;2022-08-19T07:01:40;21.80;99.90
30328;DHT22;17133;52.418;13.398;2022-08-19T07:04:07;21.80;99.90
30328;DHT22;17133;52.418;13.398;2022-08-19T07:06:33;21.80;99.90
30328;DHT22;17133;52.418;13.398;2022-08-19T07:08:59;22.70;99.90
30328;DHT22;17133;52.418;13.398;2022-08-19T07:11:25;21.90;99.90
30328;DHT22;17133;52.418;13.398;2022-08-19T07:13:51;21.90;99.90
30328;DHT22;17133;52.418;13.398;2022-08-19T07:16:19;21.90;99.90
30328;DHT22;17133;52.418;13.398;2022-08-19T07:18:48;22.00;99.90
30328;DHT22;17133;52.418;13.398;2022-08-19T07:21:21;22.00;99.90
30328;DHT22;17133;52.418;13.398;2022-08-19T07:23:49;22.10;99.90
30328;DHT22;17133;52.418;13.398;2022-08-19T07:26:26;22.20;99.90
30328;DHT22;17133;52.418;13.398;2022-08-19T07:28:54;22.20;99.90
30328;DHT22;17133;52.418;13.398;2022-08-19T07:31:22;22.30;99.90
30328;DHT22;17133;52.418;13.398;2022-08-19T07:33:50;22.30;99.90
30328;DHT22;17133;52.418;13.398;2022-08-19T07:36:18;22.40;99.90
30328;DHT22;17133;52.418;13.398;2022-08-19T07:38:47;22.40;99.90
30328;DHT22;17133;52.418;13.398;2022-08-19T07:41:17;22.50;99.90
30328;DHT22;17133;52.418;13.398;2022-08-19T07:43:44;23.20;99.90
30328;DHT22;17133;52.418;13.398;2022-08-19T07:46:11;22.60;99.90
30328;DHT22;17133;52.418;13.398;2022-08-19T07:48:40;22.60;99.90
30328;DHT22;17133;52.418;13.398;2022-08-19T07:51:07;22.60;99.90
30328;DHT22;17133;52.418;13.398;2022-08-19T07:53:35;22.70;99.90
30328;DHT22;17133;52.418;13.398;2022-08-19T07:56:02;22.70;99.90
30328;DHT22;17133;52.418;13.398;2022-08-19T07:58:32;22.80;99.90
30328;DHT22;17133;52.418;13.398;2022-08-19T08:00:59;22.90;99.90
30328;DHT22;17133;52.418;13.398;2022-08-19T08:03:25;23.00;99.90
30328;DHT22;17133;52.418;13.398;2022-08-19T08:06:11;22.90;99.90
30328;DHT22;17133;52.418;13.398;2022-08-19T08:08:55;23.00;99.90
30328;DHT22;17133;52.418;13.398;2022-08-19T08:11:37;22.90;99.90
30328;DHT22;17133;52.418;13.398;2022-08-19T08:14:03;22.90;99.90
30328;DHT22;17133;52.418;13.398;2022-08-19T08:16:34;22.90;99.90
30328;DHT22;17133;52.418;13.398;2022-08-19T08:19:00;22.80;99.90
30328;DHT22;17133;52.418;13.398;2022-08-19T08:21:25;22.80;99.90
30328;DHT22;17133;52.418;13.398;2022-08-19T08:23:51;22.80;99.90
30328;DHT22;17133;52.418;13.398;2022-08-19T08:26:18;22.80;99.90
30328;DHT22;17133;52.418;13.398;2022-08-19T08:28:44;22.90;99.90
30328;DHT22;17133;52.418;13.398;2022-08-19T08:31:10;22.90;99.90
30328;DHT22;17133;52.418;13.398;2022-08-19T08:33:35;23.00;99.90
30328;DHT22;17133;52.418;13.398;2022-08-19T08:36:04;23.00;99.90
30328;DHT22;17133;52.418;13.398;2022-08-19T08:38:31;23.00;99.90
30328;DHT22;17133;52.418;13.398;2022-08-19T08:41:03;23.10;99.90
30328;DHT22;17133;52.418;13.398;2022-08-19T08:43:37;23.10;99.90
30328;DHT22;17133;52.418;13.398;2022-08-19T08:46:15;23.30;99.90
30328;DHT22;17133;52.418;13.398;2022-08-19T08:48:50;23.40;99.90
30328;DHT22;17133;52.418;13.398;2022-08-19T08:51:22;23.20;99.90
30328;DHT22;17133;52.418;13.398;2022-08-19T08:53:50;23.30;99.90
30328;DHT22;17133;52.418;13.398;2022-08-19T08:56:16;23.40;99.90
30328;DHT22;17133;52.418;13.398;2022-08-19T08:59:07;23.50;99.90
30328;DHT22;17133;52.418;13.398;2022-08-19T09:01:36;23.70;99.90
30328;DHT22;17133;52.418;13.398;2022-08-19T09:04:05;23.50;99.90
30328;DHT22;17133;52.418;13.398;2022-08-19T09:06:40;23.50;99.90
30328;DHT22;17133;52.418;13.398;2022-08-19T09:09:32;23.60;99.90
30328;DHT22;17133;52.418;13.398;2022-08-19T09:14:46;23.60;99.90
30328;DHT22;17133;52.418;13.398;2022-08-19T09:17:14;23.70;99.90
30328;DHT22;17133;52.418;13.398;2022-08-19T09:22:24;23.70;99.90
30328;DHT22;17133;52.418;13.398;2022-08-19T09:24:52;23.70;99.90
30328;DHT22;17133;52.418;13.398;2022-08-19T09:27:22;23.60;99.90
30328;DHT22;17133;52.418;13.398;2022-08-19T09:29:50;23.60;99.90
30328;DHT22;17133;52.418;13.398;2022-08-19T09:32:16;23.60;99.90
30328;DHT22;17133;52.418;13.398;2022-08-19T09:34:43;23.70;99.90
30328;DHT22;17133;52.418;13.398;2022-08-19T09:37:10;23.70;99.90
30328;DHT22;17133;52.418;13.398;2022-08-19T09:39:35;23.70;99.90
30328;DHT22;17133;52.418;13.398;2022-08-19T09:42:02;23.70;99.90
30328;DHT22;17133;52.418;13.398;2022-08-19T09:44:29;23.70;99.90
30328;DHT22;17133;52.418;13.398;2022-08-19T09:46:54;23.70;99.90
30328;DHT22;17133;52.418;13.398;2022-08-19T09:49:21;23.80;99.90
30328;DHT22;17133;52.418;13.398;2022-08-19T09:51:50;23.80;99.90
30328;DHT22;17133;52.418;13.398;2022-08-19T09:54:16;23.80;99.90
30328;DHT22;17133;52.418;13.398;2022-08-19T09:56:42;23.70;99.90
30328;DHT22;17133;52.418;13.398;2022-08-19T09:59:08;23.70;99.90
30328;DHT22;17133;52.418;13.398;2022-08-19T10:01:34;23.60;99.90
30328;DHT22;17133;52.418;13.398;2022-08-19T10:04:01;23.60;99.90
30328;DHT22;17133;52.418;13.398;2022-08-19T10:06:30;23.60;99.90
30328;DHT22;17133;52.418;13.398;2022-08-19T10:08:58;23.00;99.90
30328;DHT22;17133;52.418;13.398;2022-08-19T10:11:23;23.50;99.90
30328;DHT22;17133;52.418;13.398;2022-08-19T10:13:49;23.00;99.90
30328;DHT22;17133;52.418;13.398;2022-08-19T10:16:18;23.60;99.90
30328;DHT22;17133;52.418;13.398;2022-08-19T10:18:45;23.70;99.90
30328;DHT22;17133;52.418;13.398;2022-08-19T10:21:14;23.80;99.90
30328;DHT22;17133;52.418;13.398;2022-08-19T10:23:43;23.80;99.90
30328;DHT22;17133;52.418;13.398;2022-08-19T10:26:14;23.70;99.90
30328;DHT22;17133;52.418;13.398;2022-08-19T10:28:40;23.30;99.90
30328;DHT22;17133;52.418;13.398;2022-08-19T10:31:13;23.60;99.90
30328;DHT22;17133;52.418;13.398;2022-08-19T10:33:40;23.60;99.90
30328;DHT22;17133;52.418;13.398;2022-08-19T10:36:12;23.60;99.90
30328;DHT22;17133;52.418;13.398;2022-08-19T10:38:40;23.60;99.90
30328;DHT22;17133;52.418;13.398;2022-08-19T10:41:12;24.20;99.90
30328;DHT22;17133;52.418;13.398;2022-08-19T10:43:39;23.50;99.90
30328;DHT22;17133;52.418;13.398;2022-08-19T10:46:11;23.50;99.90
30328;DHT22;17133;52.418;13.398;2022-08-19T10:48:37;23.40;99.90
30328;DHT22;17133;52.418;13.398;2022-08-19T10:51:03;23.40;99.90
30328;DHT22;17133;52.418;13.398;2022-08-19T10:53:48;23.40;99.90
30328;DHT22;17133;52.418;13.398;2022-08-19T10:56:14;23.40;99.90
30328;DHT22;17133;52.418;13.398;2022-08-19T10:58:59;23.30;99.90
30328;DHT22;17133;52.418;13.398;2022-08-19T11:01:26;23.30;99.90
30328;DHT22;17133;52.418;13.398;2022-08-19T11:03:52;23.30;99.90
30328;DHT22;17133;52.418;13.398;2022-08-19T11:06:18;23.30;99.90
30328;DHT22;17133;52.418;13.398;2022-08-19T11:08:45;23.30;99.90
30328;DHT22;17133;52.418;13.398;2022-08-19T11:11:11;23.30;99.90
30328;DHT22;17133;52.418;13.398;2022-08-19T11:13:39;23.30;99.90
30328;DHT22;17133;52.418;13.398;2022-08-19T11:16:10;23.30;99.90
30328;DHT22;17133;52.418;13.398;2022-08-19T11:18:41;23.30;99.90
30328;DHT22;17133;52.418;13.398;2022-08-19T11:21:14;23.10;99.90
30328;DHT22;17133;52.418;13.398;2022-08-19T11:23:40;24.00;99.90
30328;DHT22;17133;52.418;13.398;2022-08-19T11:26:06;23.30;99.90
30328;DHT22;17133;52.418;13.398;2022-08-19T11:28:32;23.40;99.90
30328;DHT22;17133;52.418;13.398;2022-08-19T11:30:57;23.40;99.90
30328;DHT22;17133;52.418;13.398;2022-08-19T11:33:23;23.30;99.90
30328;DHT22;17133;52.418;13.398;2022-08-19T11:35:50;25.90;99.90
30328;DHT22;17133;52.418;13.398;2022-08-19T11:38:16;23.30;99.90
30328;DHT22;17133;52.418;13.398;2022-08-19T11:40:42;22.90;99.90
30328;DHT22;17133;52.418;13.398;2022-08-19T11:43:07;23.20;99.90
30328;DHT22;17133;52.418;13.398;2022-08-19T11:45:33;23.20;99.90
30328;DHT22;17133;52.418;13.398;2022-08-19T11:47:59;23.20;99.90
30328;DHT22;17133;52.418;13.398;2022-08-19T11:50:25;23.40;99.90
30328;DHT22;17133;52.418;13.398;2022-08-19T11:52:54;23.10;99.90
30328;DHT22;17133;52.418;13.398;2022-08-19T11:55:20;23.10;99.90
30328;DHT22;17133;52.418;13.398;2022-08-19T11:57:45;23.10;99.90
30328;DHT22;17133;52.418;13.398;2022-08-19T12:00:12;22.70;99.90
30328;DHT22;17133;52.418;13.398;2022-08-19T12:02:39;22.60;99.90
30328;DHT22;17133;52.418;13.398;2022-08-19T12:05:05;23.20;99.90
30328;DHT22;17133;52.418;13.398;2022-08-19T12:07:31;23.20;99.90
30328;DHT22;17133;52.418;13.398;2022-08-19T12:09:59;23.20;99.90
30328;DHT22;17133;52.418;13.398;2022-08-19T12:12:26;23.30;99.90
30328;DHT22;17133;52.418;13.398;2022-08-19T12:14:52;24.90;99.90
30328;DHT22;17133;52.418;13.398;2022-08-19T12:17:26;23.50;99.90
30328;DHT22;17133;52.418;13.398;2022-08-19T12:19:52;23.50;99.90
30328;DHT22;17133;52.418;13.398;2022-08-19T12:22:18;22.90;99.90
30328;DHT22;17133;52.418;13.398;2022-08-19T12:24:44;23.50;99.90
30328;DHT22;17133;52.418;13.398;2022-08-19T12:27:10;23.50;99.90
30328;DHT22;17133;52.418;13.398;2022-08-19T12:29:35;23.50;99.90
30328;DHT22;17133;52.418;13.398;2022-08-19T12:32:02;24.20;99.90
30328;DHT22;17133;52.418;13.398;2022-08-19T12:34:29;23.60;99.90
30328;DHT22;17133;52.418;13.398;2022-08-19T12:37:00;23.50;99.90
30328;DHT22;17133;52.418;13.398;2022-08-19T12:39:26;23.60;99.90
30328;DHT22;17133;52.418;13.398;2022-08-19T12:41:52;23.60;99.90
30328;DHT22;17133;52.418;13.398;2022-08-19T12:44:18;23.60;99.90
30328;DHT22;17133;52.418;13.398;2022-08-19T12:46:44;23.70;99.90
30328;DHT22;17133;52.418;13.398;2022-08-19T12:49:10;23.80;99.90
30328;DHT22;17133;52.418;13.398;2022-08-19T12:51:35;23.90;99.90
30328;DHT22;17133;52.418;13.398;2022-08-19T12:54:01;24.60;99.90
30328;DHT22;17133;52.418;13.398;2022-08-19T12:56:27;24.00;99.90
30328;DHT22;17133;52.418;13.398;2022-08-19T12:58:53;24.00;99.90
30328;DHT22;17133;52.418;13.398;2022-08-19T13:01:19;24.00;99.90
30328;DHT22;17133;52.418;13.398;2022-08-19T13:03:46;24.10;99.90
30328;DHT22;17133;52.418;13.398;2022-08-19T13:06:12;24.20;99.90
30328;DHT22;17133;52.418;13.398;2022-08-19T13:08:38;24.20;99.90
30328;DHT22;17133;52.418;13.398;2022-08-19T13:11:23;24.20;99.90
30328;DHT22;17133;52.418;13.398;2022-08-19T13:13:51;24.20;99.90
30328;DHT22;17133;52.418;13.398;2022-08-19T13:16:17;23.60;99.90
30328;DHT22;17133;52.418;13.398;2022-08-19T13:18:45;24.30;99.90
30328;DHT22;17133;52.418;13.398;2022-08-19T13:21:17;24.20;99.90
30328;DHT22;17133;52.418;13.398;2022-08-19T13:23:45;24.30;99.90
30328;DHT22;17133;52.418;13.398;2022-08-19T13:26:11;24.30;99.90
30328;DHT22;17133;52.418;13.398;2022-08-19T13:28:38;24.30;99.90
30328;DHT22;17133;52.418;13.398;2022-08-19T13:31:25;24.30;99.90
30328;DHT22;17133;52.418;13.398;2022-08-19T13:34:09;24.20;99.90
30328;DHT22;17133;52.418;13.398;2022-08-19T13:36:36;24.20;99.90
30328;DHT22;17133;52.418;13.398;2022-08-19T13:39:03;24.20;99.90
30328;DHT22;17133;52.418;13.398;2022-08-19T13:43:56;24.20;99.90
30328;DHT22;17133;52.418;13.398;2022-08-19T13:48:48;24.30;99.90
30328;DHT22;17133;52.418;13.398;2022-08-19T13:51:15;24.20;99.90
30328;DHT22;17133;52.418;13.398;2022-08-19T13:56:13;24.30;99.90
30328;DHT22;17133;52.418;13.398;2022-08-19T13:58:39;24.40;99.90
30328;DHT22;17133;52.418;13.398;2022-08-19T14:01:05;24.40;99.90
30328;DHT22;17133;52.418;13.398;2022-08-19T14:03:32;24.50;99.90
30328;DHT22;17133;52.418;13.398;2022-08-19T14:05:59;24.50;99.90
30328;DHT22;17133;52.418;13.398;2022-08-19T14:08:25;24.50;99.90
30328;DHT22;17133;52.418;13.398;2022-08-19T14:10:53;24.40;99.90
30328;DHT22;17133;52.418;13.398;2022-08-19T14:13:22;24.50;99.90
30328;DHT22;17133;52.418;13.398;2022-08-19T14:15:49;24.70;99.90
30328;DHT22;17133;52.418;13.398;2022-08-19T14:18:16;24.60;99.90
30328;DHT22;17133;52.418;13.398;2022-08-19T14:20:43;24.80;99.90
30328;DHT22;17133;52.418;13.398;2022-08-19T14:23:09;24.70;99.90
30328;DHT22;17133;52.418;13.398;2022-08-19T14:28:01;24.70;99.90
30328;DHT22;17133;52.418;13.398;2022-08-19T14:30:31;24.60;99.90
30328;DHT22;17133;52.418;13.398;2022-08-19T14:33:00;24.60;99.90
30328;DHT22;17133;52.418;13.398;2022-08-19T14:35:27;24.60;99.90
30328;DHT22;17133;52.418;13.398;2022-08-19T14:37:53;24.70;99.90
30328;DHT22;17133;52.418;13.398;2022-08-19T14:40:25;24.50;99.90
30328;DHT22;17133;52.418;13.398;2022-08-19T14:42:54;24.50;99.90
30328;DHT22;17133;52.418;13.398;2022-08-19T14:45:25;24.70;99.90
30328;DHT22;17133;52.418;13.398;2022-08-19T14:50:19;24.60;99.90
30328;DHT22;17133;52.418;13.398;2022-08-19T14:55:14;24.80;99.90
30328;DHT22;17133;52.418;13.398;2022-08-19T14:57:41;24.70;99.90
30328;DHT22;17133;52.418;13.398;2022-08-19T15:00:07;24.70;99.90
30328;DHT22;17133;52.418;13.398;2022-08-19T15:02:38;24.50;99.90
30328;DHT22;17133;52.418;13.398;2022-08-19T15:05:04;24.60;99.90
30328;DHT22;17133;52.418;13.398;2022-08-19T15:07:30;24.50;99.90
30328;DHT22;17133;52.418;13.398;2022-08-19T15:14:47;24.40;99.90
30328;DHT22;17133;52.418;13.398;2022-08-19T15:17:16;24.20;99.90
30328;DHT22;17133;52.418;13.398;2022-08-19T15:22:08;24.30;99.90
30328;DHT22;17133;52.418;13.398;2022-08-19T15:29:27;24.20;99.90
30328;DHT22;17133;52.418;13.398;2022-08-19T15:34:25;24.20;99.90
30328;DHT22;17133;52.418;13.398;2022-08-19T15:39:18;24.10;99.90
30328;DHT22;17133;52.418;13.398;2022-08-19T15:41:45;24.00;99.90
30328;DHT22;17133;52.418;13.398;2022-08-19T15:44:15;24.00;99.90
30328;DHT22;17133;52.418;13.398;2022-08-19T15:46:42;23.90;99.90
30328;DHT22;17133;52.418;13.398;2022-08-19T15:49:10;23.80;99.90
30328;DHT22;17133;52.418;13.398;2022-08-19T15:51:37;23.90;99.90
30328;DHT22;17133;52.418;13.398;2022-08-19T15:54:06;23.90;99.90
30328;DHT22;17133;52.418;13.398;2022-08-19T16:02:02;23.80;99.90
30328;DHT22;17133;52.418;13.398;2022-08-19T16:09:56;23.70;99.90
30328;DHT22;17133;52.418;13.398;2022-08-19T16:12:22;23.70;99.90
30328;DHT22;17133;52.418;13.398;2022-08-19T16:14:52;23.60;99.90
30328;DHT22;17133;52.418;13.398;2022-08-19T16:24:36;23.50;99.90
30328;DHT22;17133;52.418;13.398;2022-08-19T16:31:54;23.50;99.90
30328;DHT22;17133;52.418;13.398;2022-08-19T16:34:21;23.50;99.90
30328;DHT22;17133;52.418;13.398;2022-08-19T16:36:47;23.50;99.90
30328;DHT22;17133;52.418;13.398;2022-08-19T16:44:08;23.30;99.90
30328;DHT22;17133;52.418;13.398;2022-08-19T16:49:02;23.40;99.90
30328;DHT22;17133;52.418;13.398;2022-08-19T16:53:54;23.20;99.90
30328;DHT22;17133;52.418;13.398;2022-08-19T16:56:20;23.30;99.90
30328;DHT22;17133;52.418;13.398;2022-08-19T16:58:47;23.30;99.90
30328;DHT22;17133;52.418;13.398;2022-08-19T17:01:12;23.30;99.90
30328;DHT22;17133;52.418;13.398;2022-08-19T17:03:39;23.20;99.90
30328;DHT22;17133;52.418;13.398;2022-08-19T17:08:41;23.10;99.90
30328;DHT22;17133;52.418;13.398;2022-08-19T17:11:07;23.10;99.90
30328;DHT22;17133;52.418;13.398;2022-08-19T17:13:34;23.00;99.90
30328;DHT22;17133;52.418;13.398;2022-08-19T17:16:00;23.00;99.90
30328;DHT22;17133;52.418;13.398;2022-08-19T17:18:26;22.90;99.90
30328;DHT22;17133;52.418;13.398;2022-08-19T17:20:52;22.80;99.90
30328;DHT22;17133;52.418;13.398;2022-08-19T17:23:19;22.80;99.90
30328;DHT22;17133;52.418;13.398;2022-08-19T17:28:20;22.70;99.90
30328;DHT22;17133;52.418;13.398;2022-08-19T17:30:46;22.70;99.90
30328;DHT22;17133;52.418;13.398;2022-08-19T17:33:12;22.60;99.90
30328;DHT22;17133;52.418;13.398;2022-08-19T17:35:38;22.60;99.90
30328;DHT22;17133;52.418;13.398;2022-08-19T17:38:11;22.40;99.90
30328;DHT22;17133;52.418;13.398;2022-08-19T17:40:38;22.50;99.90